CES6820 ZSSS-RCSS
Flight info
| Callsign | CES6820 |
|---|---|
| Flight time | 0h 56m |
| Altitude | 38100 |
| Route | NXD61D NXD W131 AKDIM A470 BZ/K0915S1130 R596 SULEM/N0502F340 R596 BERBA B591 APU APU1E |
| Aircraft | B77W/H-SDE2E3FGILRWXY/LB2 |
Departure
| Time | 2026-05-05 04:51 |
|---|---|
| Airport | Shanghai Hongqiao International Airport (ZSSS) |
Arrival
| Time | 2026-05-05 05:47 |
|---|---|
| Airport | Taipei Songshan International Airport (RCSS) |
| Time | Latitude | Longitude | Altitude | Speed | Heading |
|---|---|---|---|---|---|
| 2026-05-05 04:35 | 31.19594 | 121.32549 | 24 ft | 0 kts | 267° |
| 2026-05-05 04:39 | 31.19594 | 121.32550 | 24 ft | 1 kts | 267° |
| 2026-05-05 04:39 | 31.19595 | 121.32568 | 28 ft | 3 kts | 267° |
| 2026-05-05 04:40 | 31.19596 | 121.32592 | 28 ft | 3 kts | 267° |
| 2026-05-05 04:40 | 31.19597 | 121.32614 | 28 ft | 2 kts | 267° |
| 2026-05-05 04:40 | 31.19597 | 121.32636 | 29 ft | 3 kts | 282° |
| 2026-05-05 04:40 | 31.19592 | 121.32656 | 28 ft | 3 kts | 300° |
| 2026-05-05 04:41 | 31.19581 | 121.32674 | 28 ft | 3 kts | 317° |
| 2026-05-05 04:41 | 31.19566 | 121.32688 | 28 ft | 3 kts | 327° |
| 2026-05-05 04:41 | 31.19564 | 121.32690 | 28 ft | 0 kts | 328° |
| 2026-05-05 04:43 | 31.19564 | 121.32689 | 28 ft | 1 kts | 328° |
| 2026-05-05 04:44 | 31.19585 | 121.32676 | 29 ft | 6 kts | 334° |
| 2026-05-05 04:44 | 31.19645 | 121.32665 | 25 ft | 12 kts | 355° |
| 2026-05-05 04:44 | 31.19714 | 121.32697 | 26 ft | 12 kts | 70° |
| 2026-05-05 04:44 | 31.19721 | 121.32796 | 26 ft | 12 kts | 87° |
| 2026-05-05 04:45 | 31.19725 | 121.32895 | 28 ft | 12 kts | 88° |
| 2026-05-05 04:45 | 31.19729 | 121.32994 | 24 ft | 12 kts | 87° |
| 2026-05-05 04:45 | 31.19780 | 121.33054 | 26 ft | 12 kts | 7° |
| 2026-05-05 04:45 | 31.19867 | 121.33052 | 28 ft | 12 kts | 357° |
| 2026-05-05 04:46 | 31.19953 | 121.33048 | 25 ft | 12 kts | 357° |
| 2026-05-05 04:46 | 31.20039 | 121.33043 | 27 ft | 12 kts | 357° |
| 2026-05-05 04:46 | 31.20126 | 121.33038 | 27 ft | 13 kts | 357° |
| 2026-05-05 04:46 | 31.20214 | 121.33033 | 26 ft | 13 kts | 357° |
| 2026-05-05 04:47 | 31.20303 | 121.33029 | 29 ft | 13 kts | 358° |
| 2026-05-05 04:47 | 31.20392 | 121.33023 | 25 ft | 13 kts | 355° |
| 2026-05-05 04:47 | 31.20481 | 121.33019 | 27 ft | 13 kts | 358° |
| 2026-05-05 04:47 | 31.20591 | 121.33013 | 28 ft | 19 kts | 357° |
| 2026-05-05 04:48 | 31.20743 | 121.33005 | 25 ft | 24 kts | 357° |
| 2026-05-05 04:48 | 31.20908 | 121.32996 | 28 ft | 24 kts | 357° |
| 2026-05-05 04:48 | 31.21037 | 121.32989 | 24 ft | 17 kts | 357° |
| 2026-05-05 04:48 | 31.21126 | 121.32992 | 26 ft | 11 kts | 25° |
| 2026-05-05 04:49 | 31.21153 | 121.33071 | 24 ft | 12 kts | 88° |
| 2026-05-05 04:49 | 31.21145 | 121.33167 | 26 ft | 12 kts | 126° |
| 2026-05-05 04:49 | 31.21061 | 121.33180 | 23 ft | 13 kts | 178° |
| 2026-05-05 04:49 | 31.21047 | 121.33181 | 23 ft | 1 kts | 177° |
| 2026-05-05 04:50 | 31.21040 | 121.33181 | 23 ft | 2 kts | 178° |
| 2026-05-05 04:50 | 31.20941 | 121.33185 | 23 ft | 38 kts | 178° |
| 2026-05-05 04:50 | 31.20391 | 121.33210 | 28 ft | 119 kts | 176° |
| 2026-05-05 04:50 | 31.19338 | 121.33272 | 119 ft | 172 kts | 178° |
| 2026-05-05 04:51 | 31.18171 | 121.33340 | 911 ft | 171 kts | 180° |
| 2026-05-05 04:51 | 31.16931 | 121.33378 | 1633 ft | 178 kts | 180° |
| 2026-05-05 04:51 | 31.15653 | 121.33436 | 2297 ft | 197 kts | 179° |
| 2026-05-05 04:51 | 31.14184 | 121.33508 | 2573 ft | 225 kts | 179° |
| 2026-05-05 04:52 | 31.12553 | 121.33592 | 3125 ft | 241 kts | 179° |
| 2026-05-05 04:52 | 31.10858 | 121.33676 | 3865 ft | 250 kts | 180° |
| 2026-05-05 04:52 | 31.09088 | 121.33760 | 4547 ft | 258 kts | 179° |
| 2026-05-05 04:52 | 31.07275 | 121.33750 | 4916 ft | 263 kts | 191° |
| 2026-05-05 04:53 | 31.05559 | 121.32915 | 4899 ft | 272 kts | 220° |
| 2026-05-05 04:53 | 31.04420 | 121.31196 | 4937 ft | 268 kts | 251° |
| 2026-05-05 04:53 | 31.04120 | 121.29069 | 4949 ft | 268 kts | 272° |
| 2026-05-05 04:53 | 31.04345 | 121.26912 | 4939 ft | 267 kts | 282° |
| 2026-05-05 04:54 | 31.04441 | 121.24800 | 4993 ft | 264 kts | 256° |
| 2026-05-05 04:54 | 31.03507 | 121.22960 | 5670 ft | 273 kts | 227° |
| 2026-05-05 04:54 | 31.01931 | 121.21673 | 6492 ft | 284 kts | 208° |
| 2026-05-05 04:54 | 31.00012 | 121.21044 | 7357 ft | 290 kts | 184° |
| 2026-05-05 04:55 | 30.97997 | 121.21138 | 8273 ft | 292 kts | 176° |
| 2026-05-05 04:55 | 30.95957 | 121.21371 | 9182 ft | 294 kts | 175° |
| 2026-05-05 04:55 | 30.93947 | 121.21630 | 10091 ft | 296 kts | 175° |
| 2026-05-05 04:55 | 30.91830 | 121.21903 | 10721 ft | 311 kts | 176° |
| 2026-05-05 04:56 | 30.89605 | 121.22177 | 10949 ft | 340 kts | 176° |
| 2026-05-05 04:56 | 30.87125 | 121.22475 | 11186 ft | 369 kts | 176° |
| 2026-05-05 04:56 | 30.84539 | 121.22780 | 11776 ft | 384 kts | 176° |
| 2026-05-05 04:56 | 30.81817 | 121.23094 | 12674 ft | 393 kts | 176° |
| 2026-05-05 04:57 | 30.79099 | 121.23405 | 13726 ft | 399 kts | 176° |
| 2026-05-05 04:57 | 30.76319 | 121.23723 | 14702 ft | 404 kts | 176° |
| 2026-05-05 04:57 | 30.73472 | 121.24040 | 15687 ft | 408 kts | 176° |
| 2026-05-05 04:57 | 30.70660 | 121.24353 | 16659 ft | 412 kts | 177° |
| 2026-05-05 04:58 | 30.67790 | 121.24667 | 17588 ft | 418 kts | 177° |
| 2026-05-05 04:58 | 30.64877 | 121.24985 | 18491 ft | 423 kts | 177° |
| 2026-05-05 04:58 | 30.61927 | 121.25309 | 19292 ft | 427 kts | 178° |
| 2026-05-05 04:58 | 30.58965 | 121.25635 | 20128 ft | 430 kts | 178° |
| 2026-05-05 04:59 | 30.55973 | 121.25964 | 20950 ft | 433 kts | 179° |
| 2026-05-05 04:59 | 30.52954 | 121.26295 | 21777 ft | 436 kts | 180° |
| 2026-05-05 04:59 | 30.49935 | 121.26626 | 22581 ft | 439 kts | 180° |
| 2026-05-05 04:59 | 30.46880 | 121.26961 | 23365 ft | 441 kts | 181° |
| 2026-05-05 05:00 | 30.43812 | 121.27297 | 24049 ft | 444 kts | 181° |
| 2026-05-05 05:00 | 30.40739 | 121.27634 | 24690 ft | 446 kts | 181° |
| 2026-05-05 05:00 | 30.37640 | 121.27973 | 25322 ft | 448 kts | 182° |
| 2026-05-05 05:00 | 30.34532 | 121.28313 | 25933 ft | 450 kts | 182° |
| 2026-05-05 05:01 | 30.31404 | 121.28655 | 26513 ft | 453 kts | 182° |
| 2026-05-05 05:01 | 30.28256 | 121.28998 | 27074 ft | 456 kts | 182° |
| 2026-05-05 05:01 | 30.25076 | 121.29345 | 27622 ft | 459 kts | 182° |
| 2026-05-05 05:01 | 30.21891 | 121.29691 | 28142 ft | 462 kts | 182° |
| 2026-05-05 05:02 | 30.18687 | 121.30040 | 28624 ft | 465 kts | 182° |
| 2026-05-05 05:02 | 30.15482 | 121.30389 | 29059 ft | 469 kts | 182° |
| 2026-05-05 05:02 | 30.12224 | 121.30743 | 29509 ft | 472 kts | 182° |
| 2026-05-05 05:02 | 30.08941 | 121.31101 | 29931 ft | 475 kts | 182° |
| 2026-05-05 05:03 | 30.05643 | 121.31460 | 30356 ft | 476 kts | 183° |
| 2026-05-05 05:03 | 30.02368 | 121.31820 | 30928 ft | 472 kts | 183° |
| 2026-05-05 05:03 | 29.99088 | 121.32181 | 31473 ft | 471 kts | 183° |
| 2026-05-05 05:03 | 29.95834 | 121.32537 | 31945 ft | 469 kts | 184° |
| 2026-05-05 05:04 | 29.92600 | 121.32889 | 32427 ft | 468 kts | 184° |
| 2026-05-05 05:04 | 29.89369 | 121.33242 | 33011 ft | 464 kts | 184° |
| 2026-05-05 05:04 | 29.86159 | 121.33591 | 33532 ft | 462 kts | 184° |
| 2026-05-05 05:04 | 29.82960 | 121.33937 | 34003 ft | 461 kts | 185° |
| 2026-05-05 05:05 | 29.79777 | 121.34280 | 34389 ft | 460 kts | 185° |
| 2026-05-05 05:05 | 29.76590 | 121.34623 | 34733 ft | 459 kts | 185° |
| 2026-05-05 05:05 | 29.73402 | 121.34965 | 35040 ft | 460 kts | 185° |
| 2026-05-05 05:05 | 29.70215 | 121.35307 | 35352 ft | 460 kts | 186° |
| 2026-05-05 05:06 | 29.67038 | 121.35650 | 35660 ft | 459 kts | 186° |
| 2026-05-05 05:06 | 29.63894 | 121.35988 | 35923 ft | 459 kts | 186° |
| 2026-05-05 05:06 | 29.60672 | 121.36334 | 36204 ft | 460 kts | 186° |
| 2026-05-05 05:06 | 29.57525 | 121.36673 | 36500 ft | 459 kts | 186° |
| 2026-05-05 05:07 | 29.54338 | 121.37017 | 36779 ft | 459 kts | 186° |
| 2026-05-05 05:07 | 29.51154 | 121.37360 | 37043 ft | 459 kts | 187° |
| 2026-05-05 05:07 | 29.47982 | 121.37702 | 37332 ft | 459 kts | 187° |
| 2026-05-05 05:07 | 29.44789 | 121.38045 | 37616 ft | 459 kts | 187° |
| 2026-05-05 05:08 | 29.41614 | 121.38387 | 37905 ft | 459 kts | 187° |
| 2026-05-05 05:08 | 29.38427 | 121.38728 | 38098 ft | 461 kts | 187° |
| 2026-05-05 05:08 | 29.35226 | 121.39069 | 38111 ft | 462 kts | 187° |
| 2026-05-05 05:09 | 29.28839 | 121.39755 | 38165 ft | 460 kts | 187° |
| 2026-05-05 05:09 | 29.22519 | 121.40435 | 38173 ft | 458 kts | 187° |
| 2026-05-05 05:10 | 29.16170 | 121.41113 | 38169 ft | 457 kts | 187° |
| 2026-05-05 05:10 | 29.09830 | 121.41787 | 38186 ft | 458 kts | 187° |
| 2026-05-05 05:11 | 29.03481 | 121.42463 | 38178 ft | 458 kts | 187° |
| 2026-05-05 05:11 | 28.97138 | 121.43138 | 38175 ft | 458 kts | 187° |
| 2026-05-05 05:12 | 28.90787 | 121.43814 | 38181 ft | 458 kts | 187° |
| 2026-05-05 05:12 | 28.84445 | 121.44488 | 38180 ft | 458 kts | 187° |
| 2026-05-05 05:13 | 28.78145 | 121.45158 | 38186 ft | 457 kts | 187° |
| 2026-05-05 05:13 | 28.71806 | 121.45829 | 38193 ft | 457 kts | 187° |
| 2026-05-05 05:14 | 28.65458 | 121.46500 | 38191 ft | 458 kts | 187° |
| 2026-05-05 05:14 | 28.60196 | 121.47056 | 38198 ft | 458 kts | 187° |
| 2026-05-05 05:15 | 28.53853 | 121.47727 | 38202 ft | 457 kts | 187° |
| 2026-05-05 05:15 | 28.46462 | 121.48506 | 38207 ft | 457 kts | 187° |
| 2026-05-05 05:16 | 28.41198 | 121.49060 | 38206 ft | 457 kts | 187° |
| 2026-05-05 05:16 | 28.34876 | 121.49725 | 38210 ft | 457 kts | 186° |
| 2026-05-05 05:17 | 28.28544 | 121.50391 | 38204 ft | 456 kts | 186° |
| 2026-05-05 05:17 | 28.22214 | 121.51056 | 38209 ft | 456 kts | 186° |
| 2026-05-05 05:18 | 28.15896 | 121.51718 | 38206 ft | 456 kts | 186° |
| 2026-05-05 05:18 | 28.09588 | 121.52378 | 38204 ft | 456 kts | 186° |
| 2026-05-05 05:19 | 28.03307 | 121.53034 | 38204 ft | 456 kts | 186° |
| 2026-05-05 05:19 | 27.96974 | 121.53695 | 38201 ft | 457 kts | 186° |
| 2026-05-05 05:20 | 27.90641 | 121.54357 | 38200 ft | 458 kts | 186° |
| 2026-05-05 05:20 | 27.84297 | 121.55018 | 38198 ft | 458 kts | 186° |
| 2026-05-05 05:21 | 27.77946 | 121.55680 | 38194 ft | 458 kts | 186° |
| 2026-05-05 05:21 | 27.71607 | 121.56339 | 38203 ft | 458 kts | 186° |
| 2026-05-05 05:22 | 27.65235 | 121.57271 | 38185 ft | 477 kts | 173° |
| 2026-05-05 05:22 | 27.62154 | 121.58887 | 38202 ft | 505 kts | 157° |
| 2026-05-05 05:22 | 27.59425 | 121.61514 | 38198 ft | 531 kts | 140° |
| 2026-05-05 05:22 | 27.57321 | 121.65016 | 38173 ft | 548 kts | 122° |
| 2026-05-05 05:23 | 27.56125 | 121.69135 | 38215 ft | 559 kts | 108° |
| 2026-05-05 05:23 | 27.54779 | 121.77836 | 38207 ft | 566 kts | 103° |
| 2026-05-05 05:24 | 27.53545 | 121.86546 | 38200 ft | 566 kts | 105° |
| 2026-05-05 05:24 | 27.52118 | 121.95252 | 38197 ft | 564 kts | 106° |
| 2026-05-05 05:25 | 27.50601 | 122.03899 | 38193 ft | 562 kts | 107° |
| 2026-05-05 05:25 | 27.49085 | 122.12533 | 38199 ft | 562 kts | 107° |
| 2026-05-05 05:26 | 27.47582 | 122.21159 | 38201 ft | 562 kts | 107° |
| 2026-05-05 05:26 | 27.46075 | 122.29806 | 38205 ft | 562 kts | 107° |
| 2026-05-05 05:27 | 27.44579 | 122.38367 | 38201 ft | 562 kts | 105° |
| 2026-05-05 05:27 | 27.43759 | 122.51596 | 38208 ft | 568 kts | 92° |
| 2026-05-05 05:28 | 27.43860 | 122.60478 | 38204 ft | 567 kts | 93° |
| 2026-05-05 05:28 | 27.43861 | 122.69363 | 38206 ft | 568 kts | 94° |
| 2026-05-05 05:29 | 27.42526 | 122.79486 | 38208 ft | 543 kts | 123° |
| 2026-05-05 05:29 | 27.32684 | 122.90040 | 38235 ft | 482 kts | 170° |
| 2026-05-05 05:29 | 27.20038 | 122.94911 | 38231 ft | 486 kts | 170° |
| 2026-05-05 05:30 | 27.07470 | 122.98165 | 38123 ft | 436 kts | 201° |
| 2026-05-05 05:30 | 26.97394 | 122.91877 | 38288 ft | 415 kts | 223° |
| 2026-05-05 05:30 | 26.78344 | 122.76652 | 38160 ft | 420 kts | 221° |
| 2026-05-05 05:31 | 26.59237 | 122.61572 | 38182 ft | 425 kts | 221° |
| 2026-05-05 05:31 | 26.39737 | 122.46222 | 38176 ft | 427 kts | 221° |
| 2026-05-05 05:32 | 26.20358 | 122.31026 | 36525 ft | 436 kts | 221° |
| 2026-05-05 05:32 | 26.10588 | 122.23426 | 31351 ft | 405 kts | 220° |
| 2026-05-05 05:32 | 26.01670 | 122.16584 | 25920 ft | 374 kts | 219° |
| 2026-05-05 05:33 | 25.93386 | 122.10221 | 20632 ft | 352 kts | 219° |
| 2026-05-05 05:33 | 25.85103 | 122.03859 | 16602 ft | 384 kts | 218° |
| 2026-05-05 05:33 | 25.76445 | 121.97242 | 14772 ft | 371 kts | 218° |
| 2026-05-05 05:33 | 25.68028 | 121.90830 | 13539 ft | 363 kts | 217° |
| 2026-05-05 05:34 | 25.59820 | 121.84562 | 12469 ft | 354 kts | 217° |
| 2026-05-05 05:34 | 25.51764 | 121.78344 | 11385 ft | 350 kts | 217° |
| 2026-05-05 05:34 | 25.43822 | 121.72233 | 10372 ft | 346 kts | 217° |
| 2026-05-05 05:34 | 25.36074 | 121.66284 | 9427 ft | 312 kts | 217° |
| 2026-05-05 05:35 | 25.29528 | 121.61264 | 7768 ft | 270 kts | 217° |
| 2026-05-05 05:35 | 25.27232 | 121.59501 | 6996 ft | 270 kts | 217° |
| 2026-05-05 05:35 | 25.25715 | 121.58339 | 6696 ft | 259 kts | 217° |
| 2026-05-05 05:35 | 25.24236 | 121.57269 | 6368 ft | 253 kts | 214° |
| 2026-05-05 05:36 | 25.22706 | 121.56265 | 6140 ft | 259 kts | 212° |
| 2026-05-05 05:36 | 25.21153 | 121.55256 | 6095 ft | 260 kts | 212° |
| 2026-05-05 05:36 | 25.19605 | 121.54248 | 5931 ft | 254 kts | 212° |
| 2026-05-05 05:36 | 25.18076 | 121.53251 | 5679 ft | 260 kts | 212° |
| 2026-05-05 05:37 | 25.16549 | 121.52251 | 5445 ft | 250 kts | 212° |
| 2026-05-05 05:37 | 25.15047 | 121.51267 | 5160 ft | 257 kts | 211° |
| 2026-05-05 05:37 | 25.13507 | 121.50258 | 5109 ft | 258 kts | 211° |
| 2026-05-05 05:37 | 25.11958 | 121.49241 | 5100 ft | 263 kts | 211° |
| 2026-05-05 05:38 | 25.08526 | 121.46983 | 5203 ft | 321 kts | 211° |
| 2026-05-05 05:38 | 25.04539 | 121.44360 | 5257 ft | 343 kts | 211° |
| 2026-05-05 05:38 | 25.00834 | 121.41926 | 4587 ft | 292 kts | 211° |
| 2026-05-05 05:38 | 24.97515 | 121.39744 | 3890 ft | 267 kts | 211° |
| 2026-05-05 05:39 | 24.94387 | 121.37690 | 3259 ft | 253 kts | 211° |
| 2026-05-05 05:39 | 24.91420 | 121.35742 | 3205 ft | 248 kts | 211° |
| 2026-05-05 05:39 | 24.87641 | 121.31622 | 3199 ft | 250 kts | 265° |
| 2026-05-05 05:39 | 24.91213 | 121.25255 | 3282 ft | 256 kts | 311° |
| 2026-05-05 05:40 | 24.97084 | 121.22543 | 3314 ft | 247 kts | 30° |
| 2026-05-05 05:40 | 24.99568 | 121.25169 | 3215 ft | 223 kts | 47° |
| 2026-05-05 05:40 | 25.00577 | 121.26369 | 3185 ft | 200 kts | 47° |
| 2026-05-05 05:40 | 25.01501 | 121.27464 | 3227 ft | 197 kts | 47° |
| 2026-05-05 05:41 | 25.02450 | 121.28583 | 3236 ft | 202 kts | 47° |
| 2026-05-05 05:41 | 25.03410 | 121.29710 | 3255 ft | 202 kts | 47° |
| 2026-05-05 05:41 | 25.04371 | 121.30835 | 3214 ft | 200 kts | 47° |
| 2026-05-05 05:41 | 25.05324 | 121.31950 | 3230 ft | 198 kts | 47° |
| 2026-05-05 05:42 | 25.06268 | 121.33052 | 3208 ft | 197 kts | 47° |
| 2026-05-05 05:42 | 25.07146 | 121.34192 | 3194 ft | 194 kts | 63° |
| 2026-05-05 05:42 | 25.07427 | 121.35621 | 3126 ft | 195 kts | 88° |
| 2026-05-05 05:42 | 25.07523 | 121.37103 | 2866 ft | 188 kts | 89° |
| 2026-05-05 05:43 | 25.07538 | 121.38468 | 2651 ft | 174 kts | 93° |
| 2026-05-05 05:43 | 25.07502 | 121.39798 | 2457 ft | 171 kts | 93° |
| 2026-05-05 05:43 | 25.07460 | 121.41075 | 2270 ft | 168 kts | 94° |
| 2026-05-05 05:43 | 25.07413 | 121.42355 | 2092 ft | 167 kts | 94° |
| 2026-05-05 05:44 | 25.07368 | 121.43635 | 1865 ft | 162 kts | 94° |
| 2026-05-05 05:44 | 25.07326 | 121.44853 | 1620 ft | 153 kts | 94° |
| 2026-05-05 05:44 | 25.07287 | 121.45934 | 1447 ft | 134 kts | 92° |
| 2026-05-05 05:44 | 25.07253 | 121.46944 | 1306 ft | 132 kts | 92° |
| 2026-05-05 05:45 | 25.07216 | 121.48006 | 1124 ft | 146 kts | 93° |
| 2026-05-05 05:45 | 25.07175 | 121.49134 | 926 ft | 147 kts | 94° |
| 2026-05-05 05:45 | 25.07135 | 121.50240 | 723 ft | 141 kts | 92° |
| 2026-05-05 05:45 | 25.07101 | 121.51298 | 492 ft | 137 kts | 91° |
| 2026-05-05 05:46 | 25.07063 | 121.52377 | 384 ft | 146 kts | 93° |
| 2026-05-05 05:46 | 25.07025 | 121.53503 | 154 ft | 143 kts | 93° |
| 2026-05-05 05:46 | 25.06989 | 121.54581 | 33 ft | 136 kts | 91° |
| 2026-05-05 05:46 | 25.06955 | 121.55429 | 33 ft | 79 kts | 92° |
| 2026-05-05 05:47 | 25.06941 | 121.55801 | 32 ft | 32 kts | 92° |
| 2026-05-05 05:47 | 25.06884 | 121.56019 | 32 ft | 18 kts | 116° |
| 2026-05-05 05:47 | 25.06877 | 121.56035 | 32 ft | 2 kts | 117° |
| 2026-05-05 05:47 | 25.06863 | 121.56062 | 32 ft | 7 kts | 120° |
| 2026-05-05 05:48 | 25.06830 | 121.56121 | 32 ft | 10 kts | 123° |
| 2026-05-05 05:48 | 25.06769 | 121.56131 | 32 ft | 10 kts | 219° |
| 2026-05-05 05:48 | 25.06741 | 121.56060 | 32 ft | 10 kts | 252° |
| 2026-05-05 05:48 | 25.06721 | 121.55983 | 32 ft | 11 kts | 255° |
| 2026-05-05 05:49 | 25.06698 | 121.55885 | 32 ft | 15 kts | 255° |
| 2026-05-05 05:49 | 25.06668 | 121.55757 | 32 ft | 19 kts | 255° |
| 2026-05-05 05:49 | 25.06634 | 121.55609 | 32 ft | 20 kts | 255° |
| 2026-05-05 05:49 | 25.06599 | 121.55464 | 32 ft | 20 kts | 255° |
| 2026-05-05 05:50 | 25.06580 | 121.55362 | 32 ft | 10 kts | 264° |
| 2026-05-05 05:50 | 25.06579 | 121.55353 | 32 ft | 2 kts | 265° |
| 2026-05-05 05:50 | 25.06577 | 121.55322 | 32 ft | 7 kts | 265° |
| 2026-05-05 05:50 | 25.06576 | 121.55259 | 32 ft | 7 kts | 270° |
| 2026-05-05 05:51 | 25.06544 | 121.55223 | 32 ft | 3 kts | 199° |
| 2026-05-05 05:51 | 25.06516 | 121.55219 | 32 ft | 4 kts | 183° |
| 2026-05-05 05:51 | 25.06494 | 121.55219 | 32 ft | 1 kts | 178° |
| 2026-05-05 05:51 | 25.06487 | 121.55219 | 32 ft | 0 kts | 178° |